sensor_id;sensor_type;location;lat;lon;timestamp;pressure;altitude;pressure_sealevel;temperature
15709;BMP180;7954;51.914;8.420;2022-12-18T00:00:07;101746.88;;;-0.28
15709;BMP180;7954;51.914;8.420;2022-12-18T00:02:37;101745.91;;;-0.29
15709;BMP180;7954;51.914;8.420;2022-12-18T00:05:06;101742.16;;;-0.31
15709;BMP180;7954;51.914;8.420;2022-12-18T00:07:36;101742.16;;;-0.31
15709;BMP180;7954;51.914;8.420;2022-12-18T00:10:05;101743.34;;;-0.33
15709;BMP180;7954;51.914;8.420;2022-12-18T00:12:33;101736.84;;;-0.32
15709;BMP180;7954;51.914;8.420;2022-12-18T00:15:02;101740.88;;;-0.33
15709;BMP180;7954;51.914;8.420;2022-12-18T00:17:30;101751.38;;;-0.34
15709;BMP180;7954;51.914;8.420;2022-12-18T00:19:59;101750.13;;;-0.36
15709;BMP180;7954;51.914;8.420;2022-12-18T00:22:27;101749.16;;;-0.36
15709;BMP180;7954;51.914;8.420;2022-12-18T00:24:56;101751.63;;;-0.36
15709;BMP180;7954;51.914;8.420;2022-12-18T00:27:24;101746.75;;;-0.32
15709;BMP180;7954;51.914;8.420;2022-12-18T00:29:54;101758.91;;;-0.30
15709;BMP180;7954;51.914;8.420;2022-12-18T00:32:23;101755.25;;;-0.28
15709;BMP180;7954;51.914;8.420;2022-12-18T00:34:53;101753.44;;;-0.25
15709;BMP180;7954;51.914;8.420;2022-12-18T00:37:22;101759.03;;;-0.26
15709;BMP180;7954;51.914;8.420;2022-12-18T00:39:50;101760.22;;;-0.28
15709;BMP180;7954;51.914;8.420;2022-12-18T00:42:19;101761.38;;;-0.30
15709;BMP180;7954;51.914;8.420;2022-12-18T00:45:06;101765.34;;;-0.34
15709;BMP180;7954;51.914;8.420;2022-12-18T00:47:39;101749.50;;;-0.35
15709;BMP180;7954;51.914;8.420;2022-12-18T00:50:08;101761.28;;;-0.34
15709;BMP180;7954;51.914;8.420;2022-12-18T00:52:37;101760.13;;;-0.32
15709;BMP180;7954;51.914;8.420;2022-12-18T00:55:06;101758.91;;;-0.30
15709;BMP180;7954;51.914;8.420;2022-12-18T00:57:34;101752.75;;;-0.28
15709;BMP180;7954;51.914;8.420;2022-12-18T01:00:03;101748.47;;;-0.25
15709;BMP180;7954;51.914;8.420;2022-12-18T01:02:32;101740.44;;;-0.24
15709;BMP180;7954;51.914;8.420;2022-12-18T01:05:00;101736.44;;;-0.23
15709;BMP180;7954;51.914;8.420;2022-12-18T01:07:28;101735.22;;;-0.21
15709;BMP180;7954;51.914;8.420;2022-12-18T01:09:59;101737.38;;;-0.23
15709;BMP180;7954;51.914;8.420;2022-12-18T01:12:27;101730.00;;;-0.19
15709;BMP180;7954;51.914;8.420;2022-12-18T01:14:56;101737.53;;;-0.15
15709;BMP180;7954;51.914;8.420;2022-12-18T01:17:24;101734.47;;;-0.14
15709;BMP180;7954;51.914;8.420;2022-12-18T01:19:53;101736.34;;;-0.13
15709;BMP180;7954;51.914;8.420;2022-12-18T01:22:21;101741.41;;;-0.09
15709;BMP180;7954;51.914;8.420;2022-12-18T01:24:49;101736.78;;;-0.07
15709;BMP180;7954;51.914;8.420;2022-12-18T01:27:18;101737.66;;;-0.11
15709;BMP180;7954;51.914;8.420;2022-12-18T01:29:46;101740.13;;;-0.11
15709;BMP180;7954;51.914;8.420;2022-12-18T01:32:14;101745.09;;;-0.11
15709;BMP180;7954;51.914;8.420;2022-12-18T01:34:42;101748.84;;;-0.09
15709;BMP180;7954;51.914;8.420;2022-12-18T01:37:10;101749.19;;;-0.07
15709;BMP180;7954;51.914;8.420;2022-12-18T01:39:39;101745.50;;;-0.05
15709;BMP180;7954;51.914;8.420;2022-12-18T01:42:10;101737.81;;;-0.03
15709;BMP180;7954;51.914;8.420;2022-12-18T01:45:05;101737.56;;;-0.01
15709;BMP180;7954;51.914;8.420;2022-12-18T01:47:36;101749.63;;;-0.02
15709;BMP180;7954;51.914;8.420;2022-12-18T01:50:09;101749.63;;;-0.02
15709;BMP180;7954;51.914;8.420;2022-12-18T01:52:38;101738.16;;;-0.02
15709;BMP180;7954;51.914;8.420;2022-12-18T01:55:10;101744.09;;;-0.01
15709;BMP180;7954;51.914;8.420;2022-12-18T01:57:39;101732.25;;;-0.02
15709;BMP180;7954;51.914;8.420;2022-12-18T02:00:11;101738.84;;;0.01
15709;BMP180;7954;51.914;8.420;2022-12-18T02:02:40;101741.00;;;0.00
15709;BMP180;7954;51.914;8.420;2022-12-18T02:05:10;101741.59;;;-0.01
15709;BMP180;7954;51.914;8.420;2022-12-18T02:07:47;101745.97;;;0.00
15709;BMP180;7954;51.914;8.420;2022-12-18T02:10:20;101736.72;;;0.03
15709;BMP180;7954;51.914;8.420;2022-12-18T02:12:57;101743.22;;;0.02
15709;BMP180;7954;51.914;8.420;2022-12-18T02:15:33;101753.16;;;0.02
15709;BMP180;7954;51.914;8.420;2022-12-18T02:18:05;101748.53;;;0.04
15709;BMP180;7954;51.914;8.420;2022-12-18T02:20:42;101748.53;;;0.04
15709;BMP180;7954;51.914;8.420;2022-12-18T02:23:23;101751.34;;;0.05
15709;BMP180;7954;51.914;8.420;2022-12-18T02:26:07;101746.03;;;0.04
15709;BMP180;7954;51.914;8.420;2022-12-18T02:28:42;101741.09;;;0.04
15709;BMP180;7954;51.914;8.420;2022-12-18T02:31:15;101728.69;;;0.04
15709;BMP180;7954;51.914;8.420;2022-12-18T02:33:44;101725.59;;;0.05
15709;BMP180;7954;51.914;8.420;2022-12-18T02:36:13;101734.31;;;0.07
15709;BMP180;7954;51.914;8.420;2022-12-18T02:38:44;101736.13;;;0.04
15709;BMP180;7954;51.914;8.420;2022-12-18T02:41:16;101732.25;;;-0.02
15709;BMP180;7954;51.914;8.420;2022-12-18T02:43:47;101729.06;;;-0.05
15709;BMP180;7954;51.914;8.420;2022-12-18T02:46:28;101724.75;;;-0.06
15709;BMP180;7954;51.914;8.420;2022-12-18T02:49:02;101723.78;;;-0.06
15709;BMP180;7954;51.914;8.420;2022-12-18T02:51:42;101723.78;;;-0.06
15709;BMP180;7954;51.914;8.420;2022-12-18T02:54:20;101730.63;;;-0.05
15709;BMP180;7954;51.914;8.420;2022-12-18T02:56:55;101724.75;;;-0.06
15709;BMP180;7954;51.914;8.420;2022-12-18T02:59:31;101723.19;;;-0.05
15709;BMP180;7954;51.914;8.420;2022-12-18T03:02:04;101731.81;;;-0.07
15709;BMP180;7954;51.914;8.420;2022-12-18T03:04:38;101734.66;;;-0.06
15709;BMP180;7954;51.914;8.420;2022-12-18T03:07:12;101728.41;;;-0.08
15709;BMP180;7954;51.914;8.420;2022-12-18T03:09:46;101728.75;;;-0.06
15709;BMP180;7954;51.914;8.420;2022-12-18T03:12:18;101729.69;;;-0.06
15709;BMP180;7954;51.914;8.420;2022-12-18T03:14:55;101734.66;;;-0.06
15709;BMP180;7954;51.914;8.420;2022-12-18T03:17:28;101729.78;;;-0.02
15709;BMP180;7954;51.914;8.420;2022-12-18T03:20:06;101721.75;;;-0.01
15709;BMP180;7954;51.914;8.420;2022-12-18T03:22:37;101713.94;;;-0.03
15709;BMP180;7954;51.914;8.420;2022-12-18T03:25:08;101724.22;;;-0.01
15709;BMP180;7954;51.914;8.420;2022-12-18T03:27:43;101729.53;;;0.00
15709;BMP180;7954;51.914;8.420;2022-12-18T03:30:14;101742.84;;;0.01
15709;BMP180;7954;51.914;8.420;2022-12-18T03:32:46;101741.69;;;0.03
15709;BMP180;7954;51.914;8.420;2022-12-18T03:35:20;101738.28;;;0.02
15709;BMP180;7954;51.914;8.420;2022-12-18T03:37:49;101734.91;;;0.06
15709;BMP180;7954;51.914;8.420;2022-12-18T03:40:17;101733.03;;;0.05
15709;BMP180;7954;51.914;8.420;2022-12-18T03:42:49;101737.38;;;0.06
15709;BMP180;7954;51.914;8.420;2022-12-18T03:45:23;101743.31;;;0.06
15709;BMP180;7954;51.914;8.420;2022-12-18T03:48:00;101735.28;;;0.07
15709;BMP180;7954;51.914;8.420;2022-12-18T03:50:36;101732.16;;;0.08
15709;BMP180;7954;51.914;8.420;2022-12-18T03:53:12;101732.53;;;0.10
15709;BMP180;7954;51.914;8.420;2022-12-18T03:55:47;101724.84;;;0.12
15709;BMP180;7954;51.914;8.420;2022-12-18T03:58:19;101723.53;;;0.10
15709;BMP180;7954;51.914;8.420;2022-12-18T04:00:48;101726.00;;;0.10
15709;BMP180;7954;51.914;8.420;2022-12-18T04:03:19;101718.91;;;0.12
15709;BMP180;7954;51.914;8.420;2022-12-18T04:05:54;101722.94;;;0.11
15709;BMP180;7954;51.914;8.420;2022-12-18T04:08:23;101714.53;;;0.11
15709;BMP180;7954;51.914;8.420;2022-12-18T04:10:53;101721.97;;;0.11
15709;BMP180;7954;51.914;8.420;2022-12-18T04:13:29;101717.66;;;0.10
15709;BMP180;7954;51.914;8.420;2022-12-18T04:15:59;101717.00;;;0.11
15709;BMP180;7954;51.914;8.420;2022-12-18T04:18:27;101718.31;;;0.13
15709;BMP180;7954;51.914;8.420;2022-12-18T04:20:56;101717.72;;;0.14
15709;BMP180;7954;51.914;8.420;2022-12-18T04:23:24;101725.16;;;0.14
15709;BMP180;7954;51.914;8.420;2022-12-18T04:25:51;101743.81;;;0.16
15709;BMP180;7954;51.914;8.420;2022-12-18T04:28:20;101737.31;;;0.16
15709;BMP180;7954;51.914;8.420;2022-12-18T04:30:49;101735.16;;;0.18
15709;BMP180;7954;51.914;8.420;2022-12-18T04:33:18;101736.81;;;0.21
15709;BMP180;7954;51.914;8.420;2022-12-18T04:35:46;101735.84;;;0.21
15709;BMP180;7954;51.914;8.420;2022-12-18T04:38:14;101745.75;;;0.21
15709;BMP180;7954;51.914;8.420;2022-12-18T04:40:42;101745.16;;;0.22
15709;BMP180;7954;51.914;8.420;2022-12-18T04:43:11;101736.53;;;0.24
15709;BMP180;7954;51.914;8.420;2022-12-18T04:45:39;101732.25;;;0.27
15709;BMP180;7954;51.914;8.420;2022-12-18T04:48:08;101731.66;;;0.28
15709;BMP180;7954;51.914;8.420;2022-12-18T04:50:36;101738.00;;;0.34
15709;BMP180;7954;51.914;8.420;2022-12-18T04:53:06;101737.41;;;0.35
15709;BMP180;7954;51.914;8.420;2022-12-18T04:55:35;101737.03;;;0.33
15709;BMP180;7954;51.914;8.420;2022-12-18T04:58:04;101730.09;;;0.28
15709;BMP180;7954;51.914;8.420;2022-12-18T05:00:32;101729.16;;;0.28
15709;BMP180;7954;51.914;8.420;2022-12-18T05:03:00;101723.28;;;0.27
15709;BMP180;7954;51.914;8.420;2022-12-18T05:05:30;101729.84;;;0.31
15709;BMP180;7954;51.914;8.420;2022-12-18T05:08:00;101726.16;;;0.33
15709;BMP180;7954;51.914;8.420;2022-12-18T05:10:28;101721.28;;;0.37
15709;BMP180;7954;51.914;8.420;2022-12-18T05:13:03;101715.38;;;0.36
15709;BMP180;7954;51.914;8.420;2022-12-18T05:15:32;101718.13;;;0.34
15709;BMP180;7954;51.914;8.420;2022-12-18T05:18:01;101708.53;;;0.35
15709;BMP180;7954;51.914;8.420;2022-12-18T05:20:31;101702.69;;;0.39
15709;BMP180;7954;51.914;8.420;2022-12-18T05:22:59;101705.25;;;0.43
15709;BMP180;7954;51.914;8.420;2022-12-18T05:25:27;101709.88;;;0.41
15709;BMP180;7954;51.914;8.420;2022-12-18T05:27:55;101703.44;;;0.46
15709;BMP180;7954;51.914;8.420;2022-12-18T05:30:24;101705.78;;;0.52
15709;BMP180;7954;51.914;8.420;2022-12-18T05:32:52;101703.94;;;0.55
15709;BMP180;7954;51.914;8.420;2022-12-18T05:35:20;101720.47;;;0.59
15709;BMP180;7954;51.914;8.420;2022-12-18T05:37:50;101720.53;;;0.63
15709;BMP180;7954;51.914;8.420;2022-12-18T05:40:18;101716.88;;;0.64
15709;BMP180;7954;51.914;8.420;2022-12-18T05:42:46;101720.59;;;0.66
15709;BMP180;7954;51.914;8.420;2022-12-18T05:45:15;101719.09;;;0.67
15709;BMP180;7954;51.914;8.420;2022-12-18T05:47:43;101707.94;;;0.69
15709;BMP180;7954;51.914;8.420;2022-12-18T05:50:11;101707.31;;;0.70
15709;BMP180;7954;51.914;8.420;2022-12-18T05:52:40;101707.66;;;0.71
15709;BMP180;7954;51.914;8.420;2022-12-18T05:55:09;101709.56;;;0.72
15709;BMP180;7954;51.914;8.420;2022-12-18T05:57:38;101715.19;;;0.75
15709;BMP180;7954;51.914;8.420;2022-12-18T06:00:07;101709.63;;;0.76
15709;BMP180;7954;51.914;8.420;2022-12-18T06:02:35;101715.88;;;0.78
15709;BMP180;7954;51.914;8.420;2022-12-18T06:05:04;101707.13;;;0.76
15709;BMP180;7954;51.914;8.420;2022-12-18T06:07:33;101709.00;;;0.77
15709;BMP180;7954;51.914;8.420;2022-12-18T06:10:02;101716.13;;;0.76
15709;BMP180;7954;51.914;8.420;2022-12-18T06:12:32;101722.91;;;0.73
15709;BMP180;7954;51.914;8.420;2022-12-18T06:15:00;101716.41;;;0.73
15709;BMP180;7954;51.914;8.420;2022-12-18T06:17:28;101716.41;;;0.73
15709;BMP180;7954;51.914;8.420;2022-12-18T06:19:56;101727.53;;;0.71
15709;BMP180;7954;51.914;8.420;2022-12-18T06:22:26;101729.41;;;0.72
15709;BMP180;7954;51.914;8.420;2022-12-18T06:24:54;101725.81;;;0.78
15709;BMP180;7954;51.914;8.420;2022-12-18T06:27:23;101718.09;;;0.81
15709;BMP180;7954;51.914;8.420;2022-12-18T06:29:53;101724.31;;;0.83
15709;BMP180;7954;51.914;8.420;2022-12-18T06:32:21;101734.00;;;0.85
15709;BMP180;7954;51.914;8.420;2022-12-18T06:34:50;101732.22;;;0.88
15709;BMP180;7954;51.914;8.420;2022-12-18T06:37:18;101730.38;;;0.91
15709;BMP180;7954;51.914;8.420;2022-12-18T06:39:46;101746.00;;;0.94
15709;BMP180;7954;51.914;8.420;2022-12-18T06:42:13;101741.03;;;0.94
15709;BMP180;7954;51.914;8.420;2022-12-18T06:44:42;101741.94;;;0.95
15709;BMP180;7954;51.914;8.420;2022-12-18T06:47:11;101736.72;;;0.97
15709;BMP180;7954;51.914;8.420;2022-12-18T06:49:40;101746.72;;;1.01
15709;BMP180;7954;51.914;8.420;2022-12-18T06:52:07;101740.50;;;0.99
15709;BMP180;7954;51.914;8.420;2022-12-18T06:54:35;101744.16;;;0.97
15709;BMP180;7954;51.914;8.420;2022-12-18T06:57:04;101744.81;;;1.00
15709;BMP180;7954;51.914;8.420;2022-12-18T06:59:32;101740.56;;;1.03
15709;BMP180;7954;51.914;8.420;2022-12-18T07:02:00;101739.69;;;1.07
15709;BMP180;7954;51.914;8.420;2022-12-18T07:04:30;101745.06;;;1.12
15709;BMP180;7954;51.914;8.420;2022-12-18T07:06:59;101740.75;;;1.15
15709;BMP180;7954;51.914;8.420;2022-12-18T07:09:26;101744.84;;;1.19
15709;BMP180;7954;51.914;8.420;2022-12-18T07:11:55;101743.97;;;1.22
15709;BMP180;7954;51.914;8.420;2022-12-18T07:14:23;101740.91;;;1.23
15709;BMP180;7954;51.914;8.420;2022-12-18T07:16:51;101733.81;;;1.28
15709;BMP180;7954;51.914;8.420;2022-12-18T07:19:20;101731.34;;;1.28
15709;BMP180;7954;51.914;8.420;2022-12-18T07:21:51;101741.00;;;1.31
15709;BMP180;7954;51.914;8.420;2022-12-18T07:24:19;101738.25;;;1.33
15709;BMP180;7954;51.914;8.420;2022-12-18T07:26:47;101741.00;;;1.31
15709;BMP180;7954;51.914;8.420;2022-12-18T07:29:15;101737.94;;;1.32
15709;BMP180;7954;51.914;8.420;2022-12-18T07:31:43;101735.50;;;1.36
15709;BMP180;7954;51.914;8.420;2022-12-18T07:34:12;101727.44;;;1.37
15709;BMP180;7954;51.914;8.420;2022-12-18T07:36:40;101733.34;;;1.37
15709;BMP180;7954;51.914;8.420;2022-12-18T07:39:10;101738.31;;;1.37
15709;BMP180;7954;51.914;8.420;2022-12-18T07:41:38;101733.06;;;1.40
15709;BMP180;7954;51.914;8.420;2022-12-18T07:44:12;101745.06;;;1.49
15709;BMP180;7954;51.914;8.420;2022-12-18T07:46:40;101743.22;;;1.52
15709;BMP180;7954;51.914;8.420;2022-12-18T07:49:08;101747.66;;;1.57
15709;BMP180;7954;51.914;8.420;2022-12-18T07:51:39;101746.78;;;1.60
15709;BMP180;7954;51.914;8.420;2022-12-18T07:54:07;101744.63;;;1.62
15709;BMP180;7954;51.914;8.420;2022-12-18T07:56:37;101746.84;;;1.64
15709;BMP180;7954;51.914;8.420;2022-12-18T07:59:05;101734.44;;;1.68
15709;BMP180;7954;51.914;8.420;2022-12-18T08:01:33;101733.25;;;1.70
15709;BMP180;7954;51.914;8.420;2022-12-18T08:04:01;101719.28;;;1.75
15709;BMP180;7954;51.914;8.420;2022-12-18T08:06:29;101719.44;;;1.83
15709;BMP180;7954;51.914;8.420;2022-12-18T08:08:58;101723.28;;;1.92
15709;BMP180;7954;51.914;8.420;2022-12-18T08:11:27;101715.22;;;1.93
15709;BMP180;7954;51.914;8.420;2022-12-18T08:13:57;101712.78;;;1.97
15709;BMP180;7954;51.914;8.420;2022-12-18T08:16:26;101715.03;;;2.04
15709;BMP180;7954;51.914;8.420;2022-12-18T08:18:55;101700.47;;;2.09
15709;BMP180;7954;51.914;8.420;2022-12-18T08:21:25;101707.47;;;2.18
15709;BMP180;7954;51.914;8.420;2022-12-18T08:23:55;101705.66;;;2.25
15709;BMP180;7954;51.914;8.420;2022-12-18T08:26:24;101690.47;;;2.32
15709;BMP180;7954;51.914;8.420;2022-12-18T08:28:53;101690.00;;;2.45
15709;BMP180;7954;51.914;8.420;2022-12-18T08:31:24;101691.97;;;2.53
15709;BMP180;7954;51.914;8.420;2022-12-18T08:33:52;101692.06;;;2.61
15709;BMP180;7954;51.914;8.420;2022-12-18T08:36:21;101697.41;;;2.67
15709;BMP180;7954;51.914;8.420;2022-12-18T08:38:51;101691.84;;;2.72
15709;BMP180;7954;51.914;8.420;2022-12-18T08:41:19;101688.81;;;2.81
15709;BMP180;7954;51.914;8.420;2022-12-18T08:43:47;101677.34;;;2.85
15709;BMP180;7954;51.914;8.420;2022-12-18T08:46:37;101677.72;;;2.95
15709;BMP180;7954;51.914;8.420;2022-12-18T08:49:06;101681.25;;;3.07
15709;BMP180;7954;51.914;8.420;2022-12-18T08:51:34;101680.09;;;3.17
15709;BMP180;7954;51.914;8.420;2022-12-18T08:54:03;101685.78;;;3.28
15709;BMP180;7954;51.914;8.420;2022-12-18T08:56:32;101677.75;;;3.37
15709;BMP180;7954;51.914;8.420;2022-12-18T08:59:02;101680.31;;;3.45
15709;BMP180;7954;51.914;8.420;2022-12-18T09:01:30;101687.25;;;3.58
15709;BMP180;7954;51.914;8.420;2022-12-18T09:04:02;101677.34;;;3.70
15709;BMP180;7954;51.914;8.420;2022-12-18T09:06:32;101664.59;;;3.80
15709;BMP180;7954;51.914;8.420;2022-12-18T09:09:00;101664.66;;;3.88
15709;BMP180;7954;51.914;8.420;2022-12-18T09:11:29;101664.06;;;3.97
15709;BMP180;7954;51.914;8.420;2022-12-18T09:13:59;101671.94;;;4.10
15709;BMP180;7954;51.914;8.420;2022-12-18T09:16:28;101664.47;;;4.18
15709;BMP180;7954;51.914;8.420;2022-12-18T09:18:59;101677.28;;;4.24
15709;BMP180;7954;51.914;8.420;2022-12-18T09:21:30;101677.31;;;4.32
15709;BMP180;7954;51.914;8.420;2022-12-18T09:24:02;101682.34;;;4.40
15709;BMP180;7954;51.914;8.420;2022-12-18T09:26:34;101683.59;;;4.45
15709;BMP180;7954;51.914;8.420;2022-12-18T09:29:02;101670.19;;;4.53
15709;BMP180;7954;51.914;8.420;2022-12-18T09:31:30;101664.56;;;4.58
15709;BMP180;7954;51.914;8.420;2022-12-18T09:33:58;101666.75;;;4.60
15709;BMP180;7954;51.914;8.420;2022-12-18T09:36:26;101664.25;;;4.68
15709;BMP180;7954;51.914;8.420;2022-12-18T09:38:56;101661.78;;;4.76
15709;BMP180;7954;51.914;8.420;2022-12-18T09:41:50;101650.56;;;4.82
15709;BMP180;7954;51.914;8.420;2022-12-18T09:44:23;101658.66;;;4.85
15709;BMP180;7954;51.914;8.420;2022-12-18T09:46:57;101650.53;;;4.90
15709;BMP180;7954;51.914;8.420;2022-12-18T09:49:30;101661.81;;;5.00
15709;BMP180;7954;51.914;8.420;2022-12-18T09:52:02;101659.94;;;5.07
15709;BMP180;7954;51.914;8.420;2022-12-18T09:54:37;101662.13;;;5.13
15709;BMP180;7954;51.914;8.420;2022-12-18T09:57:12;101661.19;;;5.17
15709;BMP180;7954;51.914;8.420;2022-12-18T09:59:42;101664.31;;;5.20
15709;BMP180;7954;51.914;8.420;2022-12-18T10:02:16;101659.94;;;5.23
15709;BMP180;7954;51.914;8.420;2022-12-18T10:04:48;101664.94;;;5.23
15709;BMP180;7954;51.914;8.420;2022-12-18T10:07:24;101666.50;;;5.34
15709;BMP180;7954;51.914;8.420;2022-12-18T10:10:02;101664.28;;;5.40
15709;BMP180;7954;51.914;8.420;2022-12-18T10:12:38;101661.78;;;5.48
15709;BMP180;7954;51.914;8.420;2022-12-18T10:15:14;101651.72;;;5.60
15709;BMP180;7954;51.914;8.420;2022-12-18T10:17:47;101649.22;;;5.68
15709;BMP180;7954;51.914;8.420;2022-12-18T10:20:22;101643.25;;;5.75
15709;BMP180;7954;51.914;8.420;2022-12-18T10:22:57;101636.03;;;5.80
15709;BMP180;7954;51.914;8.420;2022-12-18T10:25:33;101614.41;;;5.89
15709;BMP180;7954;51.914;8.420;2022-12-18T10:28:08;101601.22;;;5.98
15709;BMP180;7954;51.914;8.420;2022-12-18T10:30:39;101587.69;;;6.05
15709;BMP180;7954;51.914;8.420;2022-12-18T10:33:10;101576.38;;;6.11
15709;BMP180;7954;51.914;8.420;2022-12-18T10:35:41;101571.94;;;6.18
15709;BMP180;7954;51.914;8.420;2022-12-18T10:38:22;101571.94;;;6.22
15709;BMP180;7954;51.914;8.420;2022-12-18T10:40:54;101571.88;;;6.30
15709;BMP180;7954;51.914;8.420;2022-12-18T10:43:24;101564.66;;;6.32
15709;BMP180;7954;51.914;8.420;2022-12-18T10:46:03;101560.22;;;6.38
15709;BMP180;7954;51.914;8.420;2022-12-18T10:48:35;101568.69;;;6.39
15709;BMP180;7954;51.914;8.420;2022-12-18T10:51:06;101568.69;;;6.39
15709;BMP180;7954;51.914;8.420;2022-12-18T10:53:40;101561.13;;;6.47
15709;BMP180;7954;51.914;8.420;2022-12-18T10:56:11;101568.63;;;6.47
15709;BMP180;7954;51.914;8.420;2022-12-18T10:58:39;101561.38;;;6.52
15709;BMP180;7954;51.914;8.420;2022-12-18T11:01:10;101548.75;;;6.60
15709;BMP180;7954;51.914;8.420;2022-12-18T11:03:41;101541.19;;;6.68
15709;BMP180;7954;51.914;8.420;2022-12-18T11:06:11;101529.56;;;6.69
15709;BMP180;7954;51.914;8.420;2022-12-18T11:08:40;101512.53;;;6.80
15709;BMP180;7954;51.914;8.420;2022-12-18T11:11:20;101509.97;;;6.84
15709;BMP180;7954;51.914;8.420;2022-12-18T11:13:58;101519.66;;;6.86
15709;BMP180;7954;51.914;8.420;2022-12-18T11:16:29;101512.41;;;6.92
15709;BMP180;7954;51.914;8.420;2022-12-18T11:19:17;101505.44;;;6.99
15709;BMP180;7954;51.914;8.420;2022-12-18T11:21:48;101487.47;;;7.05
15709;BMP180;7954;51.914;8.420;2022-12-18T11:24:20;101480.78;;;7.13
15709;BMP180;7954;51.914;8.420;2022-12-18T11:26:51;101463.75;;;7.20
15709;BMP180;7954;51.914;8.420;2022-12-18T11:29:31;101471.81;;;7.27
15709;BMP180;7954;51.914;8.420;2022-12-18T11:32:27;101476.78;;;7.35
15709;BMP180;7954;51.914;8.420;2022-12-18T11:35:03;101469.53;;;7.37
15709;BMP180;7954;51.914;8.420;2022-12-18T11:37:32;101471.00;;;7.44
15709;BMP180;7954;51.914;8.420;2022-12-18T11:40:03;101462.69;;;7.53
15709;BMP180;7954;51.914;8.420;2022-12-18T11:42:41;101462.63;;;7.61
15709;BMP180;7954;51.914;8.420;2022-12-18T11:45:24;101468.81;;;7.67
15709;BMP180;7954;51.914;8.420;2022-12-18T11:47:57;101457.03;;;7.75
15709;BMP180;7954;51.914;8.420;2022-12-18T11:50:33;101448.31;;;7.73
15709;BMP180;7954;51.914;8.420;2022-12-18T11:53:10;101452.00;;;7.79
15709;BMP180;7954;51.914;8.420;2022-12-18T11:55:41;101448.78;;;7.84
15709;BMP180;7954;51.914;8.420;2022-12-18T11:58:23;101452.75;;;7.92
15709;BMP180;7954;51.914;8.420;2022-12-18T12:01:06;101430.69;;;7.95
15709;BMP180;7954;51.914;8.420;2022-12-18T12:06:56;101409.16;;;8.05
15709;BMP180;7954;51.914;8.420;2022-12-18T12:09:36;101402.13;;;8.12
15709;BMP180;7954;51.914;8.420;2022-12-18T12:12:21;101396.50;;;8.09
15709;BMP180;7954;51.914;8.420;2022-12-18T12:15:00;101396.50;;;8.09
15709;BMP180;7954;51.914;8.420;2022-12-18T12:17:36;101398.94;;;8.13
15709;BMP180;7954;51.914;8.420;2022-12-18T12:20:12;101399.59;;;8.16
15709;BMP180;7954;51.914;8.420;2022-12-18T12:22:49;101388.22;;;8.18
15709;BMP180;7954;51.914;8.420;2022-12-18T12:25:28;101388.16;;;8.22
15709;BMP180;7954;51.914;8.420;2022-12-18T12:28:09;101383.63;;;8.29
15709;BMP180;7954;51.914;8.420;2022-12-18T12:30:52;101375.78;;;8.27
15709;BMP180;7954;51.914;8.420;2022-12-18T12:33:32;101380.47;;;8.30
15709;BMP180;7954;51.914;8.420;2022-12-18T12:36:11;101381.34;;;8.34
15709;BMP180;7954;51.914;8.420;2022-12-18T12:38:47;101380.31;;;8.37
15709;BMP180;7954;51.914;8.420;2022-12-18T12:41:20;101382.19;;;8.38
15709;BMP180;7954;51.914;8.420;2022-12-18T12:44:12;101385.34;;;8.37
15709;BMP180;7954;51.914;8.420;2022-12-18T12:46:46;101389.09;;;8.39
15709;BMP180;7954;51.914;8.420;2022-12-18T12:49:17;101398.78;;;8.42
15709;BMP180;7954;51.914;8.420;2022-12-18T12:51:50;101402.56;;;8.44
15709;BMP180;7954;51.914;8.420;2022-12-18T12:54:23;101387.38;;;8.48
15709;BMP180;7954;51.914;8.420;2022-12-18T12:56:58;101376.72;;;8.45
15709;BMP180;7954;51.914;8.420;2022-12-18T12:59:33;101372.56;;;8.49
15709;BMP180;7954;51.914;8.420;2022-12-18T13:02:15;101364.38;;;8.50
15709;BMP180;7954;51.914;8.420;2022-12-18T13:04:51;101358.09;;;8.48
15709;BMP180;7954;51.914;8.420;2022-12-18T13:07:26;101349.03;;;8.45
15709;BMP180;7954;51.914;8.420;2022-12-18T13:10:23;101342.72;;;8.47
15709;BMP180;7954;51.914;8.420;2022-12-18T13:12:57;101343.63;;;8.47
15709;BMP180;7954;51.914;8.420;2022-12-18T13:15:37;101338.41;;;8.42
15709;BMP180;7954;51.914;8.420;2022-12-18T13:18:17;101334.63;;;8.44
15709;BMP180;7954;51.914;8.420;2022-12-18T13:20:49;101332.75;;;8.43
15709;BMP180;7954;51.914;8.420;2022-12-18T13:23:39;101328.06;;;8.40
15709;BMP180;7954;51.914;8.420;2022-12-18T13:26:29;101316.69;;;8.42
15709;BMP180;7954;51.914;8.420;2022-12-18T13:28:59;101311.66;;;8.42
15709;BMP180;7954;51.914;8.420;2022-12-18T13:34:43;101301.94;;;8.40
15709;BMP180;7954;51.914;8.420;2022-12-18T13:37:41;101310.44;;;8.40
15709;BMP180;7954;51.914;8.420;2022-12-18T13:43:41;101307.06;;;8.36
15709;BMP180;7954;51.914;8.420;2022-12-18T13:46:19;101309.31;;;8.34
15709;BMP180;7954;51.914;8.420;2022-12-18T13:48:51;101303.72;;;8.32
15709;BMP180;7954;51.914;8.420;2022-12-18T13:51:22;101302.13;;;8.32
15709;BMP180;7954;51.914;8.420;2022-12-18T13:53:53;101303.00;;;8.36
15709;BMP180;7954;51.914;8.420;2022-12-18T13:56:25;101300.38;;;8.40
15709;BMP180;7954;51.914;8.420;2022-12-18T13:59:16;101297.97;;;8.36
15709;BMP180;7954;51.914;8.420;2022-12-18T14:01:53;101292.69;;;8.31
15709;BMP180;7954;51.914;8.420;2022-12-18T14:04:27;101292.69;;;8.31
15709;BMP180;7954;51.914;8.420;2022-12-18T14:07:01;101298.31;;;8.34
15709;BMP180;7954;51.914;8.420;2022-12-18T14:09:35;101300.53;;;8.32
15709;BMP180;7954;51.914;8.420;2022-12-18T14:12:06;101291.06;;;8.35
15709;BMP180;7954;51.914;8.420;2022-12-18T14:14:52;101289.91;;;8.30
15709;BMP180;7954;51.914;8.420;2022-12-18T14:17:22;101295.31;;;8.27
15709;BMP180;7954;51.914;8.420;2022-12-18T14:19:51;101294.28;;;8.31
15709;BMP180;7954;51.914;8.420;2022-12-18T14:22:23;101298.69;;;8.32
15709;BMP180;7954;51.914;8.420;2022-12-18T14:25:10;101292.69;;;8.31
15709;BMP180;7954;51.914;8.420;2022-12-18T14:27:43;101283.63;;;8.28
15709;BMP180;7954;51.914;8.420;2022-12-18T14:30:26;101281.13;;;8.28
15709;BMP180;7954;51.914;8.420;2022-12-18T14:33:03;101289.34;;;8.27
15709;BMP180;7954;51.914;8.420;2022-12-18T14:35:31;101290.63;;;8.25
15709;BMP180;7954;51.914;8.420;2022-12-18T14:38:19;101290.53;;;8.29
15709;BMP180;7954;51.914;8.420;2022-12-18T14:40:52;101286.16;;;8.28
15709;BMP180;7954;51.914;8.420;2022-12-18T14:43:21;101276.78;;;8.27
15709;BMP180;7954;51.914;8.420;2022-12-18T14:45:49;101277.50;;;8.22
15709;BMP180;7954;51.914;8.420;2022-12-18T14:48:20;101278.13;;;8.21
15709;BMP180;7954;51.914;8.420;2022-12-18T14:50:59;101275.63;;;8.21
15709;BMP180;7954;51.914;8.420;2022-12-18T14:53:37;101270.09;;;8.14
15709;BMP180;7954;51.914;8.420;2022-12-18T14:56:14;101262.31;;;8.08